Golden Iris — 3FZK4 — position and weather

sailwx.info

Track history (hours):
 
Tides and Currents Weather Stations Pressure Air Temp Water Temp Dewpoint Dewpoint Depression Visibility Wind Speed Wind Dir Waves Ship Positions

Golden Iris

Last reported at 2017-Aug-18 11:52 UTC. Time now 2017-Aug-19 05:32 UTC.
Position N 32°55' E 034°50'.

Length 163 m; draft 6 m.

Type: Passenger vessel. MMSI: 371771000.

Date/timePositionNaut miles runAvg speedWind from/ knotsBaromVisibWave heightAir tempDewpointWater temp
2017-Aug-18 11:52N 32°55' E 034°50'4 8.2
2017-Aug-18 11:25N 32°54' E 034°54'4 0.4
2017-Aug-18 02:37N 32°52' E 034°58'210.8
2017-Aug-18 02:25N 32°53' E 034°56'712.7
2017-Aug-18 01:53N 32°54' E 034°48'23813.3
2017-Aug-17 07:59N 34°10' E 030°18'  
2017-Aug-14 05:08N 35°23' E 030°13'215.3
2017-Aug-14 05:01N 35°22' E 030°14'815.1
2017-Aug-14 04:29N 35°18' E 030°23'715.1
2017-Aug-14 04:00N 35°13' E 030°30'915.2
2017-Aug-14 03:26N 35°08' E 030°38'615.5
2017-Aug-14 03:01N 35°05' E 030°45'815.6
2017-Aug-14 02:31N 35°00' E 030°53'815.2
2017-Aug-14 02:00N 34°56' E 031°00'1615.3
2017-Aug-14 00:58N 34°47' E 031°16'715.3
2017-Aug-14 00:30N 34°43' E 031°23'1515.2
2017-Aug-13 23:30N 34°34' E 031°39'715.1
2017-Aug-13 23:01N 34°30' E 031°46'1015.1
2017-Aug-13 22:23N 34°25' E 031°56'714.9
2017-Aug-13 21:55N 34°22' E 032°03'3014.7
2017-Aug-13 19:52N 34°05' E 032°34'614.5
2017-Aug-13 19:29N 34°02' E 032°40'714.4
2017-Aug-13 19:00N 33°58' E 032°47'2013.9
2017-Aug-13 17:32N 33°52' E 033°10'5514.0
2017-Aug-13 13:37N 33°20' E 034°03'714.2
2017-Aug-13 13:07N 33°16' E 034°10'214.2
2017-Aug-13 12:57N 33°15' E 034°13'2613.9
2017-Aug-13 11:04N 33°01' E 034°39'414.4
2017-Aug-13 10:49N 32°59' E 034°43'714.3
2017-Aug-13 10:18N 32°56' E 034°51'614.5
2017-Aug-13 09:55N 32°53' E 034°57'5 0.7
2017-Aug-13 03:11N 32°49' E 035°01'1 4.7
2017-Aug-13 02:57N 32°51' E 035°01'610.4
2017-Aug-13 02:25N 32°53' E 034°55'614.1
2017-Aug-13 02:00N 32°54' E 034°48'3813.1
2017-Aug-12 23:06N 33°23' E 034°20'1215.1
2017-Aug-12 22:16N 33°34' E 034°12'415.1
2017-Aug-12 22:00N 33°38' E 034°09'715.2
2017-Aug-12 21:30N 33°44' E 034°05'1513.8
2017-Aug-12 20:27N 33°56' E 033°55'47 9.7
2017-Aug-12 15:34N 34°43' E 033°45'313.2
2017-Aug-12 15:21N 34°46' E 033°43'612.8
2017-Aug-12 14:53N 34°52' E 033°41'410.4
2017-Aug-12 14:28N 34°56' E 033°40'36 2.5
2017-Aug-12 00:24N 34°21' E 033°49'4 8.6
2017-Aug-11 23:56N 34°17' E 033°49'4 8.7
2017-Aug-11 23:30N 34°13' E 033°50'4 8.4
2017-Aug-11 23:00N 34°09' E 033°53'4 8.3
2017-Aug-11 22:30N 34°06' E 033°55'82 8.2
2017-Aug-11 12:28N 32°56' E 034°47'4 7.9
2017-Aug-11 12:00N 32°55' E 034°51'4 7.8
2017-Aug-11 11:26N 32°53' E 034°56'1 0.1
2017-Aug-11 02:21N 32°52' E 034°56'410.3
2017-Aug-11 01:58N 32°53' E 034°51'511.5
2017-Aug-11 01:30N 32°54' E 034°45'8112.8
2017-Aug-10 19:09N 33°17' E 033°11'1212.9
2017-Aug-10 18:12N 33°21' E 032°58'612.8
2017-Aug-10 17:44N 33°23' E 032°51'712.4
2017-Aug-10 17:10N 33°26' E 032°43'212.7
2017-Aug-10 17:00N 33°27' E 032°41'612.5
2017-Aug-10 16:30N 33°29' E 032°34'712.6
2017-Aug-10 15:56N 33°32' E 032°26'512.6
2017-Aug-10 15:30N 33°33' E 032°20'612.6
2017-Aug-10 15:00N 33°35' E 032°13'712.9
2017-Aug-10 14:30N 33°37' E 032°05'2813.3
2017-Aug-10 12:23N 33°46' E 031°33'  
Track history (hours):
 
Tides and Currents Weather Stations Pressure Air Temp Water Temp Dewpoint Dewpoint Depression Visibility Wind Speed Wind Dir Waves Ship Positions

Golden Iris

Last reported at 2017-Aug-18 11:52 UTC. Time now 2017-Aug-19 05:32 UTC.
Position N 32°55' E 034°50'.

Length 163 m; draft 6 m.

Type: Passenger vessel. MMSI: 371771000.

Date/timePositionNaut miles runAvg speedWind from/ knotsBaromVisibWave heightAir tempDewpointWater temp
2017-Aug-18 11:52N 32°55' E 034°50'4 8.2
2017-Aug-18 11:25N 32°54' E 034°54'4 0.4
2017-Aug-18 02:37N 32°52' E 034°58'210.8
2017-Aug-18 02:25N 32°53' E 034°56'712.7
2017-Aug-18 01:53N 32°54' E 034°48'23813.3
2017-Aug-17 07:59N 34°10' E 030°18'  
2017-Aug-14 05:08N 35°23' E 030°13'215.3
2017-Aug-14 05:01N 35°22' E 030°14'815.1
2017-Aug-14 04:29N 35°18' E 030°23'715.1
2017-Aug-14 04:00N 35°13' E 030°30'915.2
2017-Aug-14 03:26N 35°08' E 030°38'615.5
2017-Aug-14 03:01N 35°05' E 030°45'815.6
2017-Aug-14 02:31N 35°00' E 030°53'815.2
2017-Aug-14 02:00N 34°56' E 031°00'1615.3
2017-Aug-14 00:58N 34°47' E 031°16'715.3
2017-Aug-14 00:30N 34°43' E 031°23'1515.2
2017-Aug-13 23:30N 34°34' E 031°39'715.1
2017-Aug-13 23:01N 34°30' E 031°46'1015.1
2017-Aug-13 22:23N 34°25' E 031°56'714.9
2017-Aug-13 21:55N 34°22' E 032°03'3014.7
2017-Aug-13 19:52N 34°05' E 032°34'614.5
2017-Aug-13 19:29N 34°02' E 032°40'714.4
2017-Aug-13 19:00N 33°58' E 032°47'2013.9
2017-Aug-13 17:32N 33°52' E 033°10'5514.0
2017-Aug-13 13:37N 33°20' E 034°03'714.2
2017-Aug-13 13:07N 33°16' E 034°10'214.2
2017-Aug-13 12:57N 33°15' E 034°13'2613.9
2017-Aug-13 11:04N 33°01' E 034°39'414.4
2017-Aug-13 10:49N 32°59' E 034°43'714.3
2017-Aug-13 10:18N 32°56' E 034°51'614.5
2017-Aug-13 09:55N 32°53' E 034°57'5 0.7
2017-Aug-13 03:11N 32°49' E 035°01'1 4.7
2017-Aug-13 02:57N 32°51' E 035°01'610.4
2017-Aug-13 02:25N 32°53' E 034°55'614.1
2017-Aug-13 02:00N 32°54' E 034°48'3813.1
2017-Aug-12 23:06N 33°23' E 034°20'1215.1
2017-Aug-12 22:16N 33°34' E 034°12'415.1
2017-Aug-12 22:00N 33°38' E 034°09'715.2
2017-Aug-12 21:30N 33°44' E 034°05'1513.8
2017-Aug-12 20:27N 33°56' E 033°55'47 9.7
2017-Aug-12 15:34N 34°43' E 033°45'313.2
2017-Aug-12 15:21N 34°46' E 033°43'612.8
2017-Aug-12 14:53N 34°52' E 033°41'410.4
2017-Aug-12 14:28N 34°56' E 033°40'36 2.5
2017-Aug-12 00:24N 34°21' E 033°49'4 8.6
2017-Aug-11 23:56N 34°17' E 033°49'4 8.7
2017-Aug-11 23:30N 34°13' E 033°50'4 8.4
2017-Aug-11 23:00N 34°09' E 033°53'4 8.3
2017-Aug-11 22:30N 34°06' E 033°55'82 8.2
2017-Aug-11 12:28N 32°56' E 034°47'4 7.9
2017-Aug-11 12:00N 32°55' E 034°51'4 7.8
2017-Aug-11 11:26N 32°53' E 034°56'1 0.1
2017-Aug-11 02:21N 32°52' E 034°56'410.3
2017-Aug-11 01:58N 32°53' E 034°51'511.5
2017-Aug-11 01:30N 32°54' E 034°45'8112.8
2017-Aug-10 19:09N 33°17' E 033°11'1212.9
2017-Aug-10 18:12N 33°21' E 032°58'612.8
2017-Aug-10 17:44N 33°23' E 032°51'712.4
2017-Aug-10 17:10N 33°26' E 032°43'212.7
2017-Aug-10 17:00N 33°27' E 032°41'612.5
2017-Aug-10 16:30N 33°29' E 032°34'712.6
2017-Aug-10 15:56N 33°32' E 032°26'512.6
2017-Aug-10 15:30N 33°33' E 032°20'612.6
2017-Aug-10 15:00N 33°35' E 032°13'712.9
2017-Aug-10 14:30N 33°37' E 032°05'2813.3
2017-Aug-10 12:23N 33°46' E 031°33'  

Dump ship's entire track history